Terminal Aerodrome Forecast
Issued by NWS

Home | Current Version | Previous Version | Text Only | Print | Product List | Glossary On
Versions: 1 2 3 4 5 6 7 8 9 10 11 12
187
FTUS45 KRIW 201129
TAFWRL
TAF
KWRL 201129Z 2012/2112 VRB06KT P6SM SCT150 BKN200
     FM210300 02007KT P6SM BKN100
     FM210900 32010G16KT P6SM SCT060 BKN100=

USA.gov is the U.S. government's official web portal to all federal, state and local government web resources and services.